createdAt,value
2022-11-07T00:01:00.269Z,10.46
2022-11-07T00:03:27.879Z,10.47
2022-11-07T00:05:54.182Z,10.44
2022-11-07T00:08:20.465Z,10.41
2022-11-07T00:10:46.756Z,10.42
2022-11-07T00:13:13.375Z,10.49
2022-11-07T00:15:39.896Z,10.51
2022-11-07T00:18:06.175Z,10.51
2022-11-07T00:20:33.843Z,10.48
2022-11-07T00:23:00.145Z,10.47
2022-11-07T00:25:26.543Z,10.46
2022-11-07T00:27:52.878Z,10.43
2022-11-07T00:30:19.146Z,10.36
2022-11-07T00:32:45.444Z,10.36
2022-11-07T00:35:11.750Z,10.33
2022-11-07T00:37:39.376Z,10.30
2022-11-07T00:40:06.442Z,10.29
2022-11-07T00:42:32.750Z,10.33
2022-11-07T00:44:59.023Z,10.39
2022-11-07T00:47:25.303Z,10.32
2022-11-07T00:49:51.609Z,10.34
2022-11-07T00:52:17.885Z,10.35
2022-11-07T00:54:45.529Z,10.35
2022-11-07T00:57:11.834Z,10.36
2022-11-07T00:59:38.141Z,10.33
2022-11-07T01:02:04.563Z,10.29
2022-11-07T01:04:30.926Z,10.26
2022-11-07T01:06:57.211Z,10.24
2022-11-07T01:09:23.495Z,10.25
2022-11-07T01:11:51.155Z,10.25
2022-11-07T01:14:18.752Z,10.20
2022-11-07T01:16:45.606Z,10.19
2022-11-07T01:19:11.919Z,10.23
2022-11-07T01:21:38.372Z,10.22
2022-11-07T01:24:05.240Z,10.25
2022-11-07T01:26:31.547Z,10.23
2022-11-07T01:28:59.276Z,10.22
2022-11-07T01:31:25.619Z,10.19
2022-11-07T01:33:51.938Z,10.25
2022-11-07T01:36:18.364Z,10.26
2022-11-07T01:38:45.659Z,10.29
2022-11-07T01:41:14.216Z,10.39
2022-11-07T01:43:42.350Z,10.38
2022-11-07T01:46:09.989Z,10.43
2022-11-07T01:48:36.435Z,10.42
2022-11-07T01:51:02.840Z,10.52
2022-11-07T01:53:29.144Z,10.52
2022-11-07T01:55:55.476Z,10.57
2022-11-07T01:58:21.792Z,10.57
2022-11-07T02:00:48.091Z,10.58
2022-11-07T02:03:17.427Z,10.58
2022-11-07T02:05:46.130Z,10.64
2022-11-07T02:08:13.825Z,10.64
2022-11-07T02:10:40.645Z,10.62
2022-11-07T02:13:07.111Z,10.63
2022-11-07T02:15:34.737Z,10.66
2022-11-07T02:18:01.158Z,10.63
2022-11-07T02:20:29.187Z,10.65
2022-11-07T02:22:56.732Z,10.67
2022-11-07T02:25:24.517Z,10.64
2022-11-07T02:27:52.833Z,10.65
2022-11-07T02:30:20.009Z,10.61
2022-11-07T02:32:47.315Z,10.62
2022-11-07T02:35:34.916Z,10.63
2022-11-07T02:38:01.669Z,10.58
2022-11-07T02:40:30.385Z,10.55
2022-11-07T02:42:56.861Z,10.54
2022-11-07T02:45:26.358Z,10.52
2022-11-07T02:47:52.667Z,10.53
2022-11-07T02:50:19.221Z,10.50
2022-11-07T02:52:45.520Z,10.47
2022-11-07T02:55:12.971Z,10.46
2022-11-07T02:57:40.817Z,10.42
2022-11-07T03:00:08.319Z,10.40
2022-11-07T03:02:34.664Z,10.40
2022-11-07T03:05:01.106Z,10.39
2022-11-07T03:07:27.604Z,10.41
2022-11-07T03:09:53.912Z,10.42
2022-11-07T03:12:20.225Z,10.45
2022-11-07T03:14:47.846Z,10.42
2022-11-07T03:17:14.192Z,10.50
2022-11-07T03:19:40.500Z,10.45
2022-11-07T03:22:06.778Z,10.41
2022-11-07T03:24:33.068Z,10.42
2022-11-07T03:26:59.355Z,10.43
2022-11-07T03:29:25.678Z,10.46
2022-11-07T03:31:53.298Z,10.50
2022-11-07T03:34:19.600Z,10.54
2022-11-07T03:36:45.884Z,10.57
2022-11-07T03:39:12.169Z,10.59
2022-11-07T03:41:38.474Z,10.60
2022-11-07T03:44:04.894Z,10.58
2022-11-07T03:46:31.175Z,10.55
2022-11-07T03:48:58.782Z,10.53
2022-11-07T03:51:25.087Z,10.51
2022-11-07T03:53:51.383Z,10.52
2022-11-07T03:56:17.693Z,10.51
2022-11-07T03:58:43.965Z,10.51
2022-11-07T04:01:10.303Z,10.53
2022-11-07T04:03:36.592Z,10.52
2022-11-07T04:06:04.367Z,10.53
2022-11-07T04:08:30.642Z,10.56
2022-11-07T04:10:56.933Z,10.56
2022-11-07T04:13:23.226Z,10.60
2022-11-07T04:15:49.971Z,10.65
2022-11-07T04:18:16.286Z,10.61
2022-11-07T04:20:42.606Z,10.62
2022-11-07T04:23:10.271Z,10.63
2022-11-07T04:25:36.708Z,10.65
2022-11-07T04:28:03.470Z,10.62
2022-11-07T04:30:29.765Z,10.60
2022-11-07T04:32:57.051Z,10.60
2022-11-07T04:35:24.976Z,10.58
2022-11-07T04:37:51.586Z,10.60
2022-11-07T04:40:19.959Z,10.56
2022-11-07T04:42:46.776Z,10.57
2022-11-07T04:45:13.504Z,10.60
2022-11-07T04:47:40.799Z,10.57
2022-11-07T04:50:09.270Z,10.56
2022-11-07T04:52:35.559Z,10.53
2022-11-07T04:55:01.848Z,10.53
2022-11-07T04:57:29.524Z,10.53
2022-11-07T04:59:55.798Z,10.54
2022-11-07T05:02:23.180Z,10.54
2022-11-07T05:04:49.578Z,10.51
2022-11-07T05:07:15.937Z,10.47
2022-11-07T05:09:42.217Z,10.48
2022-11-07T05:12:08.517Z,10.46
2022-11-07T05:14:36.160Z,10.49
2022-11-07T05:17:03.619Z,10.51
2022-11-07T05:19:30.644Z,10.56
2022-11-07T05:21:56.976Z,10.57
2022-11-07T05:24:23.253Z,10.62
2022-11-07T05:26:49.530Z,10.61
2022-11-07T05:29:15.865Z,10.67
2022-11-07T05:31:43.500Z,10.67
2022-11-07T05:34:14.342Z,10.66
2022-11-07T05:36:40.931Z,10.69
2022-11-07T05:39:07.228Z,10.70
2022-11-07T05:41:35.262Z,10.72
2022-11-07T05:44:01.592Z,10.79
2022-11-07T05:46:27.988Z,10.82
2022-11-07T05:49:00.684Z,10.85
2022-11-07T05:51:27.491Z,10.85
2022-11-07T05:53:53.785Z,10.88
2022-11-07T05:56:20.076Z,10.91
2022-11-07T05:58:46.369Z,10.91
2022-11-07T06:01:12.719Z,10.90
2022-11-07T06:03:39.029Z,10.92
2022-11-07T06:06:06.811Z,10.93
2022-11-07T06:08:33.088Z,10.94
2022-11-07T06:11:03.563Z,10.95
2022-11-07T06:13:29.872Z,10.95
2022-11-07T06:15:57.224Z,11.00
2022-11-07T06:18:23.599Z,11.01
2022-11-07T06:20:50.146Z,11.01
2022-11-07T06:23:18.529Z,11.04
2022-11-07T06:25:45.287Z,11.04
2022-11-07T06:28:12.370Z,11.02
2022-11-07T06:30:38.666Z,10.97
2022-11-07T06:33:06.141Z,11.01
2022-11-07T06:35:32.726Z,11.00
2022-11-07T06:38:01.034Z,10.97
2022-11-07T06:40:28.686Z,10.98
2022-11-07T06:42:54.995Z,11.03
2022-11-07T06:45:21.298Z,11.06
2022-11-07T06:47:47.592Z,11.12
2022-11-07T06:50:13.931Z,11.16
2022-11-07T06:52:40.222Z,11.19
2022-11-07T06:55:07.043Z,11.19
2022-11-07T06:57:34.676Z,11.21
2022-11-07T07:00:00.973Z,11.24
2022-11-07T07:02:56.332Z,11.26
2022-11-07T07:05:18.470Z,11.35
2022-11-07T07:07:47.228Z,11.37
2022-11-07T07:10:13.533Z,11.42
2022-11-07T07:12:41.167Z,11.49
2022-11-07T07:15:08.140Z,11.52
2022-11-07T07:17:34.445Z,11.58
2022-11-07T07:20:00.754Z,11.58
2022-11-07T07:22:27.048Z,11.64
2022-11-07T07:24:53.363Z,11.59
2022-11-07T07:27:19.785Z,11.57
2022-11-07T07:29:47.451Z,11.59
2022-11-07T07:32:13.755Z,11.63
2022-11-07T07:34:40.051Z,11.63
2022-11-07T07:37:06.348Z,11.64
2022-11-07T07:39:32.641Z,11.66
2022-11-07T07:41:58.979Z,11.67
2022-11-07T07:44:25.278Z,11.72
2022-11-07T07:46:52.948Z,11.76
2022-11-07T07:49:19.245Z,11.77
2022-11-07T07:51:45.536Z,11.79
2022-11-07T07:54:11.958Z,11.82
2022-11-07T07:56:38.262Z,11.87
2022-11-07T07:59:04.547Z,11.88
2022-11-07T08:01:30.952Z,11.89
2022-11-07T08:04:01.818Z,11.97
2022-11-07T08:06:29.012Z,11.97
2022-11-07T08:08:55.290Z,11.97
2022-11-07T08:11:21.605Z,11.97
2022-11-07T08:13:47.889Z,11.95
2022-11-07T08:16:14.179Z,12.00
2022-11-07T08:18:40.462Z,12.02
2022-11-07T08:21:08.510Z,12.01
2022-11-07T08:23:34.855Z,12.05
2022-11-07T08:26:01.313Z,12.08
2022-11-07T08:28:29.392Z,12.16
2022-11-07T08:30:56.462Z,12.18
2022-11-07T08:33:22.839Z,12.21
2022-11-07T08:35:49.396Z,12.23
2022-11-07T08:38:17.020Z,12.26
2022-11-07T08:40:43.324Z,12.27
2022-11-07T08:43:09.666Z,12.36
2022-11-07T08:45:35.965Z,12.36
2022-11-07T08:48:02.306Z,12.37
2022-11-07T08:50:28.627Z,12.42
2022-11-07T08:52:59.561Z,12.43
2022-11-07T08:55:29.135Z,12.40
2022-11-07T08:57:57.845Z,12.44
2022-11-07T09:00:24.227Z,12.45
2022-11-07T09:03:30.795Z,12.48
2022-11-07T09:05:36.862Z,12.50
2022-11-07T09:08:03.262Z,12.53
2022-11-07T09:10:30.888Z,12.57
2022-11-07T09:12:57.202Z,12.60
2022-11-07T09:15:23.509Z,12.63
2022-11-07T09:17:49.832Z,12.69
2022-11-07T09:20:16.607Z,12.70
2022-11-07T09:22:42.921Z,12.74
2022-11-07T09:25:09.422Z,12.80
2022-11-07T09:27:37.087Z,12.75
2022-11-07T09:30:03.490Z,12.75
2022-11-07T09:32:45.955Z,12.76
2022-11-07T09:35:12.751Z,12.73
2022-11-07T09:37:39.491Z,12.82
2022-11-07T09:40:06.402Z,12.89
2022-11-07T09:42:38.581Z,12.87
2022-11-07T09:45:11.060Z,12.93
2022-11-07T09:47:38.791Z,12.92
2022-11-07T09:50:06.826Z,12.89
2022-11-07T09:52:38.175Z,12.89
2022-11-07T09:55:08.764Z,12.89
2022-11-07T09:57:35.927Z,12.92
2022-11-07T10:00:04.275Z,12.93
2022-11-07T10:02:33.651Z,12.92
2022-11-07T10:05:02.079Z,12.96
2022-11-07T10:07:34.929Z,12.97
2022-11-07T10:10:03.991Z,13.03
2022-11-07T10:12:45.032Z,13.07
2022-11-07T10:15:15.854Z,13.10
2022-11-07T10:17:46.178Z,13.15
2022-11-07T10:20:25.175Z,13.15
2022-11-07T10:23:05.130Z,13.15
2022-11-07T10:25:35.158Z,13.25
2022-11-07T10:28:11.643Z,13.32
2022-11-07T10:30:38.045Z,13.36
2022-11-07T10:33:11.207Z,13.41
2022-11-07T10:35:39.263Z,13.51
2022-11-07T10:38:15.668Z,13.54
2022-11-07T10:40:42.392Z,13.65
2022-11-07T10:43:13.227Z,13.75
2022-11-07T10:45:40.053Z,13.85
2022-11-07T10:48:07.862Z,13.92
2022-11-07T10:50:34.197Z,14.02
2022-11-07T10:53:01.218Z,14.13
2022-11-07T10:55:28.400Z,14.23
2022-11-07T10:57:57.565Z,14.26
2022-11-07T11:00:25.240Z,14.29
2022-11-07T11:02:52.164Z,14.31
2022-11-07T11:05:24.188Z,14.30
2022-11-07T11:07:50.890Z,14.32
2022-11-07T11:10:19.499Z,14.36
2022-11-07T11:12:46.399Z,14.40
2022-11-07T11:15:15.642Z,14.44
2022-11-07T11:17:42.003Z,14.44
2022-11-07T11:20:23.255Z,14.40
2022-11-07T11:22:52.643Z,14.42
2022-11-07T11:25:20.137Z,14.44
2022-11-07T11:27:48.027Z,14.51
2022-11-07T11:30:16.530Z,14.51
2022-11-07T11:32:44.781Z,14.50
2022-11-07T11:35:29.516Z,14.51
2022-11-07T11:38:00.720Z,14.46
2022-11-07T11:40:36.266Z,14.44
2022-11-07T11:43:05.340Z,14.51
2022-11-07T11:45:35.882Z,14.55
2022-11-07T11:48:05.277Z,14.59
2022-11-07T11:50:35.528Z,14.64
2022-11-07T11:53:03.160Z,14.65
2022-11-07T11:55:35.471Z,14.66
2022-11-07T11:58:07.271Z,14.65
2022-11-07T12:00:39.007Z,14.68
2022-11-07T12:03:30.709Z,14.69
2022-11-07T12:06:04.455Z,14.70
2022-11-07T12:08:40.201Z,14.68
2022-11-07T12:11:13.346Z,14.65
2022-11-07T12:13:47.310Z,14.60
2022-11-07T12:16:19.795Z,14.55
2022-11-07T12:18:49.636Z,14.53
2022-11-07T12:21:22.899Z,14.49
2022-11-07T12:23:55.558Z,14.47
2022-11-07T12:26:24.419Z,14.52
2022-11-07T12:28:55.441Z,14.49
2022-11-07T12:31:32.762Z,14.46
2022-11-07T12:34:04.644Z,14.51
2022-11-07T12:36:38.091Z,14.47
2022-11-07T12:39:13.671Z,14.47
2022-11-07T12:41:44.500Z,14.51
2022-11-07T12:44:25.818Z,14.56
2022-11-07T12:46:54.002Z,14.60
2022-11-07T12:49:44.611Z,14.63
2022-11-07T12:52:16.603Z,14.66
2022-11-07T12:54:48.469Z,14.67
2022-11-07T12:57:19.254Z,14.69
2022-11-07T12:59:49.447Z,14.69
2022-11-07T13:02:21.839Z,14.69
2022-11-07T13:04:51.919Z,14.71
2022-11-07T13:07:20.918Z,14.73
2022-11-07T13:09:53.286Z,14.75
2022-11-07T13:12:25.569Z,14.79
2022-11-07T13:14:52.404Z,14.85
2022-11-07T13:17:19.452Z,14.83
2022-11-07T13:19:46.489Z,14.81
2022-11-07T13:22:20.605Z,14.76
2022-11-07T13:24:52.453Z,14.78
2022-11-07T13:27:21.279Z,14.75
2022-11-07T13:29:47.647Z,14.73
2022-11-07T13:32:16.440Z,14.77
2022-11-07T13:34:48.279Z,14.69
2022-11-07T13:37:19.881Z,14.70
2022-11-07T13:39:48.751Z,14.71
2022-11-07T13:42:17.790Z,14.72
2022-11-07T13:44:49.572Z,14.74
2022-11-07T13:47:19.590Z,14.76
2022-11-07T13:49:47.431Z,14.75
2022-11-07T13:52:17.315Z,14.78
2022-11-07T13:54:48.536Z,14.82
2022-11-07T13:57:17.408Z,14.88
2022-11-07T13:59:47.733Z,14.93
2022-11-07T14:02:20.773Z,14.92
2022-11-07T14:05:14.664Z,14.90
2022-11-07T14:07:38.872Z,14.99
2022-11-07T14:10:07.491Z,14.95
2022-11-07T14:12:36.607Z,14.94
2022-11-07T14:15:04.867Z,14.91
2022-11-07T14:17:32.300Z,14.95
2022-11-07T14:20:04.843Z,14.99
2022-11-07T14:22:31.160Z,15.00
2022-11-07T14:24:57.469Z,14.98
2022-11-07T14:27:24.788Z,15.02
2022-11-07T14:29:51.714Z,14.98
2022-11-07T14:32:19.449Z,14.92
2022-11-07T14:34:46.861Z,14.90
2022-11-07T14:37:13.836Z,14.90
2022-11-07T14:39:40.402Z,14.86
2022-11-07T14:42:06.831Z,14.79
2022-11-07T14:44:53.957Z,14.77
2022-11-07T14:47:23.719Z,14.81
2022-11-07T14:49:51.165Z,14.77
2022-11-07T14:52:19.984Z,14.75
2022-11-07T14:54:47.173Z,14.75
2022-11-07T14:57:14.236Z,14.73
2022-11-07T14:59:41.249Z,14.74
2022-11-07T15:02:19.181Z,14.70
2022-11-07T15:04:47.913Z,14.66
2022-11-07T15:07:20.795Z,14.62
2022-11-07T15:09:47.441Z,14.61
2022-11-07T15:12:15.341Z,14.68
2022-11-07T15:14:41.628Z,14.61
2022-11-07T15:17:20.272Z,14.60
2022-11-07T15:19:54.492Z,14.54
2022-11-07T15:22:24.452Z,14.51
2022-11-07T15:24:50.760Z,14.53
2022-11-07T15:27:19.089Z,14.57
2022-11-07T15:29:50.195Z,14.56
2022-11-07T15:32:18.180Z,14.57
2022-11-07T15:37:32.163Z,14.50
2022-11-07T15:39:58.509Z,14.47
2022-11-07T15:42:24.826Z,14.45
2022-11-07T15:44:51.108Z,14.41
2022-11-07T15:47:18.731Z,14.36
2022-11-07T15:49:45.267Z,14.30
2022-11-07T15:52:11.573Z,14.27
2022-11-07T15:54:39.220Z,14.27
2022-11-07T15:57:06.618Z,14.29
2022-11-07T15:59:33.622Z,14.24
2022-11-07T16:02:00.258Z,14.24
2022-11-07T16:04:26.678Z,14.22
2022-11-07T16:06:53.098Z,14.18
2022-11-07T16:09:20.632Z,14.17
2022-11-07T16:11:48.443Z,14.17
2022-11-07T16:14:42.058Z,14.15
2022-11-07T16:17:02.277Z,14.20
2022-11-07T16:19:29.292Z,14.16
2022-11-07T16:21:55.592Z,14.15
2022-11-07T16:24:21.891Z,14.15
2022-11-07T16:26:51.150Z,14.14
2022-11-07T16:29:17.491Z,14.16
2022-11-07T16:31:43.796Z,14.14
2022-11-07T16:34:10.460Z,14.15
2022-11-07T16:36:37.056Z,14.14
2022-11-07T16:39:04.200Z,14.20
2022-11-07T16:41:31.249Z,14.14
2022-11-07T16:43:59.288Z,14.16
2022-11-07T16:46:26.218Z,14.13
2022-11-07T16:48:53.830Z,14.14
2022-11-07T16:51:20.855Z,14.16
2022-11-07T16:53:47.288Z,14.17
2022-11-07T16:56:23.016Z,14.11
2022-11-07T16:58:49.394Z,14.13
2022-11-07T17:01:17.172Z,14.15
2022-11-07T17:03:43.494Z,14.14
2022-11-07T17:06:15.631Z,14.12
2022-11-07T17:08:41.904Z,14.08
2022-11-07T17:11:08.229Z,14.08
2022-11-07T17:13:34.645Z,14.08
2022-11-07T17:16:01.025Z,14.09
2022-11-07T17:18:28.694Z,14.12
2022-11-07T17:20:55.075Z,14.10
2022-11-07T17:23:26.855Z,14.10
2022-11-07T17:25:56.366Z,14.11
2022-11-07T17:28:22.655Z,14.14
2022-11-07T17:30:48.968Z,14.13
2022-11-07T17:33:15.243Z,14.12
2022-11-07T17:35:42.899Z,14.12
2022-11-07T17:38:11.721Z,14.13
2022-11-07T17:40:37.991Z,14.15
2022-11-07T17:43:04.288Z,14.12
2022-11-07T17:45:30.562Z,14.10
2022-11-07T17:47:56.872Z,14.08
2022-11-07T17:50:23.484Z,14.09
2022-11-07T17:52:51.776Z,14.06
2022-11-07T17:55:18.159Z,14.07
2022-11-07T17:57:44.568Z,14.07
2022-11-07T18:00:14.275Z,14.03
2022-11-07T18:02:40.632Z,14.06
2022-11-07T18:05:07.370Z,14.00
2022-11-07T18:07:33.702Z,13.97
2022-11-07T18:10:01.316Z,13.93
2022-11-07T18:12:27.708Z,13.90
2022-11-07T18:14:54.003Z,13.89
2022-11-07T18:17:20.307Z,13.87
2022-11-07T18:19:47.558Z,13.80
2022-11-07T18:22:13.835Z,13.77
2022-11-07T18:24:40.163Z,13.74
2022-11-07T18:27:10.497Z,13.69
2022-11-07T18:29:38.513Z,13.67
2022-11-07T18:32:04.955Z,13.60
2022-11-07T18:34:31.477Z,13.57
2022-11-07T18:36:57.926Z,13.52
2022-11-07T18:39:24.556Z,13.48
2022-11-07T18:41:52.679Z,13.47
2022-11-07T18:44:20.380Z,13.42
2022-11-07T18:46:47.149Z,13.43
2022-11-07T18:49:14.636Z,13.40
2022-11-07T18:51:41.431Z,13.38
2022-11-07T18:54:07.703Z,13.38
2022-11-07T18:56:34.005Z,13.38
2022-11-07T18:59:00.285Z,13.37
2022-11-07T19:01:29.394Z,13.37
2022-11-07T19:03:56.465Z,13.36
2022-11-07T19:06:23.717Z,13.38
2022-11-07T19:08:50.050Z,13.38
2022-11-07T19:11:17.174Z,13.40
2022-11-07T19:13:44.221Z,13.38
2022-11-07T19:16:11.188Z,13.40
2022-11-07T19:18:38.865Z,13.40
2022-11-07T19:21:05.343Z,13.35
2022-11-07T19:23:31.940Z,13.34
2022-11-07T19:25:58.242Z,13.39
2022-11-07T19:28:24.514Z,13.37
2022-11-07T19:30:50.878Z,13.36
2022-11-07T19:33:17.636Z,13.34
2022-11-07T19:35:46.084Z,13.41
2022-11-07T19:38:12.911Z,13.42
2022-11-07T19:40:39.204Z,13.40
2022-11-07T19:43:05.524Z,13.40
2022-11-07T19:45:31.819Z,13.40
2022-11-07T19:47:58.131Z,13.36
2022-11-07T19:50:24.431Z,13.38
2022-11-07T19:52:52.065Z,13.39
2022-11-07T19:55:18.467Z,13.37
2022-11-07T19:57:44.753Z,13.39
2022-11-07T20:00:11.682Z,13.36
2022-11-07T20:02:44.047Z,13.39
2022-11-07T20:05:11.003Z,13.39
2022-11-07T20:07:37.864Z,13.33
2022-11-07T20:10:06.381Z,13.33
2022-11-07T20:12:33.220Z,13.38
2022-11-07T20:14:59.486Z,13.39
2022-11-07T20:17:25.767Z,13.36
2022-11-07T20:19:52.059Z,13.33
2022-11-07T20:22:18.402Z,13.39
2022-11-07T20:24:44.677Z,13.35
2022-11-07T20:27:12.322Z,13.40
2022-11-07T20:29:38.630Z,13.37
2022-11-07T20:32:05.196Z,13.35
2022-11-07T20:34:31.547Z,13.31
2022-11-07T20:36:57.833Z,13.33
2022-11-07T20:39:24.126Z,13.32
2022-11-07T20:41:50.410Z,13.30
2022-11-07T20:44:18.078Z,13.29
2022-11-07T20:46:44.972Z,13.27
2022-11-07T20:49:12.370Z,13.24
2022-11-07T20:51:38.771Z,13.24
2022-11-07T20:54:05.539Z,13.21
2022-11-07T20:56:31.853Z,13.15
2022-11-07T20:58:58.178Z,13.14
2022-11-07T21:01:26.835Z,13.14
2022-11-07T21:03:54.192Z,13.11
2022-11-07T21:06:20.494Z,13.12
2022-11-07T21:08:48.442Z,13.06
2022-11-07T21:11:15.651Z,13.07
2022-11-07T21:13:45.389Z,13.09
2022-11-07T21:16:14.481Z,13.05
2022-11-07T21:18:42.141Z,13.07
2022-11-07T21:21:09.502Z,13.05
2022-11-07T21:23:36.700Z,13.12
2022-11-07T21:26:05.553Z,13.17
2022-11-07T21:28:31.876Z,13.18
2022-11-07T21:30:58.475Z,13.17
2022-11-07T21:33:24.826Z,13.19
2022-11-07T21:35:52.438Z,13.18
2022-11-07T21:38:18.718Z,13.17
2022-11-07T21:40:45.007Z,13.17
2022-11-07T21:43:11.348Z,13.19
2022-11-07T21:45:37.720Z,13.16
2022-11-07T21:48:04.195Z,13.10
2022-11-07T21:50:44.315Z,13.13
2022-11-07T21:53:12.586Z,13.11
2022-11-07T21:55:38.903Z,13.05
2022-11-07T21:58:05.219Z,13.01
2022-11-07T22:00:35.901Z,13.03
2022-11-07T22:03:03.157Z,13.05
2022-11-07T22:05:29.433Z,13.00
2022-11-07T22:07:55.719Z,12.98
2022-11-07T22:10:23.332Z,12.95
2022-11-07T22:12:49.645Z,12.95
2022-11-07T22:15:16.021Z,12.90
2022-11-07T22:17:42.600Z,12.88
2022-11-07T22:20:09.515Z,12.84
2022-11-07T22:22:35.817Z,12.81
2022-11-07T22:25:02.129Z,12.79
2022-11-07T22:27:29.767Z,12.74
2022-11-07T22:29:56.044Z,12.72
2022-11-07T22:32:22.335Z,12.67
2022-11-07T22:34:48.617Z,12.65
2022-11-07T22:37:14.890Z,12.61
2022-11-07T22:39:41.181Z,12.60
2022-11-07T22:42:07.468Z,12.58
2022-11-07T22:44:35.103Z,12.53
2022-11-07T22:47:01.398Z,12.51
2022-11-07T22:49:27.674Z,12.47
2022-11-07T22:51:53.969Z,12.47
2022-11-07T22:54:20.272Z,12.43
2022-11-07T22:56:46.574Z,12.40
2022-11-07T22:59:12.867Z,12.33
2022-11-07T23:01:41.287Z,12.33
2022-11-07T23:04:09.582Z,12.28
2022-11-07T23:06:35.952Z,12.24
2022-11-07T23:09:02.247Z,12.23
2022-11-07T23:11:46.978Z,12.22
2022-11-07T23:14:15.367Z,12.16
2022-11-07T23:16:44.900Z,12.13
2022-11-07T23:19:12.680Z,12.08
2022-11-07T23:21:39.175Z,12.06
2022-11-07T23:24:05.981Z,12.03
2022-11-07T23:26:32.740Z,12.00
2022-11-07T23:28:59.264Z,11.94
2022-11-07T23:31:25.576Z,11.90
2022-11-07T23:33:53.172Z,11.85
2022-11-07T23:36:19.474Z,11.79
2022-11-07T23:38:45.754Z,11.78
2022-11-07T23:41:13.087Z,11.76
2022-11-07T23:43:39.412Z,11.74
2022-11-07T23:46:06.068Z,11.71
2022-11-07T23:48:32.356Z,11.67
2022-11-07T23:51:00.558Z,11.67
2022-11-07T23:53:26.823Z,11.64
2022-11-07T23:55:53.117Z,11.67
2022-11-07T23:58:19.706Z,11.65
